Time;durP1;ratioP1;P1;durP2;ratioP2;P2;SDS_P1;SDS_P2;PMS_P1;PMS_P2;Temp;Humidity;BMP_temperature;BMP_pressure;BME280_temperature;BME280_humidity;BME280_pressure;Samples;Min_cycle;Max_cycle;Signal;HPM_P1;HPM_P2
2023/07/21 00:01:08;;;;;;;1.60;1.20;;;17.50;99.90;;;;;;5017868;28;20268;-74
2023/07/21 00:03:35;;;;;;;2.60;1.10;;;17.50;99.90;;;;;;5016651;28;20292;-75
2023/07/21 00:06:04;;;;;;;2.30;1.50;;;17.50;99.90;;;;;;5020912;28;20223;-76
2023/07/21 00:08:29;;;;;;;3.03;1.33;;;17.50;99.90;;;;;;5019993;28;20223;-75
2023/07/21 00:10:59;;;;;;;1.83;1.20;;;17.50;99.90;;;;;;5019834;28;20188;-76
2023/07/21 00:13:25;;;;;;;5.00;1.58;;;17.50;99.90;;;;;;5020193;28;20188;-75
2023/07/21 00:15:52;;;;;;;4.13;1.40;;;17.50;99.90;;;;;;5020334;28;20219;-75
2023/07/21 00:18:19;;;;;;;1.20;0.80;;;17.50;99.90;;;;;;5021101;28;20216;-72
2023/07/21 00:20:45;;;;;;;2.88;1.30;;;17.40;99.90;;;;;;5019063;28;20212;-76
2023/07/21 00:23:12;;;;;;;2.22;1.20;;;17.30;99.90;;;;;;5019330;28;20586;-72
2023/07/21 00:25:39;;;;;;;3.28;1.50;;;17.30;99.90;;;;;;5019161;28;20256;-73
2023/07/21 00:28:04;;;;;;;3.45;1.52;;;17.30;99.90;;;;;;5016924;28;20234;-76
2023/07/21 00:30:30;;;;;;;5.90;1.30;;;17.20;99.90;;;;;;5017628;28;20284;-75
2023/07/21 00:32:57;;;;;;;1.77;0.90;;;17.20;99.90;;;;;;5019784;28;20219;-75
2023/07/21 00:35:23;;;;;;;2.92;1.80;;;17.20;99.90;;;;;;5015917;28;20224;-76
2023/07/21 00:37:48;;;;;;;6.75;4.30;;;17.10;99.90;;;;;;5023759;28;20203;-74
2023/07/21 00:40:20;;;;;;;9.45;5.53;;;17.10;99.90;;;;;;5017257;28;20255;-75
2023/07/21 00:42:46;;;;;;;11.23;6.50;;;17.10;99.90;;;;;;5017950;28;20204;-74
2023/07/21 00:45:15;;;;;;;4.30;2.53;;;17.10;99.90;;;;;;5014626;28;20576;-74
2023/07/21 00:47:42;;;;;;;5.90;3.35;;;17.10;99.90;;;;;;5021028;28;20760;-75
2023/07/21 00:50:12;;;;;;;3.80;2.42;;;17.00;99.90;;;;;;5015753;28;20192;-75
2023/07/21 00:52:38;;;;;;;5.45;2.65;;;17.00;99.90;;;;;;5024572;28;20658;-76
2023/07/21 00:55:05;;;;;;;3.28;1.85;;;17.00;99.90;;;;;;5012095;28;20295;-75
2023/07/21 00:57:33;;;;;;;3.05;1.90;;;17.00;99.90;;;;;;5008428;28;20216;-74
2023/07/21 00:59:58;;;;;;;3.35;1.67;;;17.00;99.90;;;;;;5012476;28;20687;-75
2023/07/21 01:02:24;;;;;;;4.72;2.03;;;17.00;99.90;;;;;;5007062;28;20250;-75
2023/07/21 01:04:51;;;;;;;7.72;3.25;;;16.90;99.90;;;;;;5009131;28;20679;-74
2023/07/21 01:07:18;;;;;;;3.25;1.85;;;16.90;99.90;;;;;;5007542;28;20216;-74
2023/07/21 01:09:45;;;;;;;2.50;1.55;;;16.90;99.90;;;;;;5010263;28;20202;-75
2023/07/21 01:12:11;;;;;;;3.25;1.50;;;16.90;99.90;;;;;;5017958;28;20211;-76
2023/07/21 01:14:37;;;;;;;4.32;2.20;;;16.80;99.90;;;;;;5017596;28;20216;-76
2023/07/21 01:17:07;;;;;;;4.70;1.25;;;16.80;99.90;;;;;;5017247;28;20191;-76
2023/07/21 01:19:34;;;;;;;3.05;1.50;;;16.80;99.90;;;;;;5017924;28;20231;-75
2023/07/21 01:22:14;;;;;;;3.05;1.10;;;16.90;99.90;;;;;;5016284;28;20215;-76
2023/07/21 01:25:04;;;;;;;2.42;1.23;;;16.90;99.90;;;;;;5017293;28;20236;-76
2023/07/21 01:27:31;;;;;;;4.18;1.98;;;16.90;99.90;;;;;;5011855;28;20243;-75
2023/07/21 01:29:58;;;;;;;4.20;1.40;;;16.80;99.90;;;;;;5020285;28;20205;-76
2023/07/21 01:32:25;;;;;;;2.90;1.10;;;16.90;99.90;;;;;;5008990;28;20212;-75
2023/07/21 01:34:53;;;;;;;2.88;1.48;;;16.90;99.90;;;;;;5008919;28;20197;-75
2023/07/21 01:37:21;;;;;;;2.53;1.40;;;16.80;99.90;;;;;;5016321;28;20300;-75
2023/07/21 01:39:47;;;;;;;4.32;1.35;;;16.80;99.90;;;;;;5001560;28;20304;-75
2023/07/21 01:42:14;;;;;;;3.85;1.35;;;16.90;99.90;;;;;;5012514;28;20204;-75
2023/07/21 01:44:39;;;;;;;5.95;1.67;;;16.80;99.90;;;;;;5013085;28;20288;-75
2023/07/21 01:47:05;;;;;;;2.60;1.55;;;16.80;99.90;;;;;;5014240;28;20263;-75
2023/07/21 01:49:31;;;;;;;5.28;2.03;;;16.70;99.90;;;;;;5011239;28;20221;-75
2023/07/21 01:51:58;;;;;;;2.20;1.38;;;16.70;99.90;;;;;;5018248;28;20263;-76
2023/07/21 01:54:58;;;;;;;2.42;1.58;;;16.70;99.90;;;;;;5011739;28;20757;-75
2023/07/21 01:57:31;;;;;;;3.35;1.40;;;16.70;99.90;;;;;;5010610;28;20208;-75
2023/07/21 01:59:59;;;;;;;4.28;1.40;;;16.70;99.90;;;;;;5013770;28;20207;-75
2023/07/21 02:02:25;;;;;;;2.95;1.30;;;16.70;99.90;;;;;;5015730;28;20665;-76
2023/07/21 02:04:52;;;;;;;3.15;1.50;;;16.70;99.90;;;;;;5020252;28;20196;-75
2023/07/21 02:07:22;;;;;;;2.30;1.40;;;16.70;99.90;;;;;;5018797;28;20203;-75
2023/07/21 02:09:51;;;;;;;2.85;1.35;;;16.60;99.90;;;;;;5001273;28;20228;-76
2023/07/21 02:12:17;;;;;;;5.13;1.63;;;16.70;99.90;;;;;;5015138;28;20204;-75
2023/07/21 02:14:42;;;;;;;3.30;1.35;;;16.70;99.90;;;;;;5005138;28;20220;-75
2023/07/21 02:17:08;;;;;;;3.00;1.30;;;16.70;99.90;;;;;;5013815;28;20180;-76
2023/07/21 02:19:34;;;;;;;3.45;1.40;;;16.70;99.90;;;;;;5009884;28;20177;-76
2023/07/21 02:21:59;;;;;;;3.58;1.40;;;16.70;99.90;;;;;;5013760;28;20291;-76
2023/07/21 02:24:26;;;;;;;3.95;1.70;;;16.70;99.90;;;;;;5001673;28;20331;-76
2023/07/21 02:26:53;;;;;;;2.60;1.20;;;16.70;99.90;;;;;;5015680;28;20210;-76
2023/07/21 02:29:19;;;;;;;2.10;1.17;;;16.60;99.90;;;;;;5014688;28;20729;-75
2023/07/21 02:31:45;;;;;;;2.88;1.40;;;16.60;99.90;;;;;;5017958;28;20177;-75
2023/07/21 02:34:11;;;;;;;1.70;1.23;;;16.60;99.90;;;;;;5008414;28;20304;-73
2023/07/21 02:36:37;;;;;;;4.20;1.30;;;16.60;99.90;;;;;;5018427;28;20300;-74
2023/07/21 02:39:04;;;;;;;2.55;1.40;;;16.60;99.90;;;;;;5017067;28;20683;-75
2023/07/21 02:41:30;;;;;;;1.63;1.20;;;16.60;99.90;;;;;;5013818;28;20223;-73
2023/07/21 02:43:55;;;;;;;3.10;1.30;;;16.50;99.90;;;;;;5017734;28;20216;-75
2023/07/21 02:46:21;;;;;;;2.13;1.30;;;16.50;99.90;;;;;;5015285;28;20168;-74
2023/07/21 02:48:47;;;;;;;1.92;1.35;;;16.50;99.90;;;;;;5015999;28;20287;-74
2023/07/21 02:51:12;;;;;;;4.70;1.15;;;16.40;99.90;;;;;;5019970;28;20208;-75
2023/07/21 02:53:39;;;;;;;3.30;1.30;;;16.40;99.90;;;;;;5019994;28;20282;-72
2023/07/21 02:56:05;;;;;;;4.75;1.35;;;16.40;99.90;;;;;;5021225;28;20184;-73
2023/07/21 02:58:32;;;;;;;3.83;1.10;;;16.40;99.90;;;;;;5015852;28;20177;-74
2023/07/21 03:00:59;;;;;;;2.38;1.35;;;16.40;99.90;;;;;;5019342;28;20683;-75
2023/07/21 03:03:26;;;;;;;5.18;1.33;;;16.40;99.90;;;;;;5020594;28;20216;-73
2023/07/21 03:05:52;;;;;;;5.03;1.60;;;16.40;99.90;;;;;;5022017;28;20205;-74
2023/07/21 03:08:26;;;;;;;1.75;1.08;;;16.40;99.90;;;;;;5021380;28;20580;-76
2023/07/21 03:10:53;;;;;;;2.00;1.25;;;16.40;99.90;;;;;;5024094;28;20732;-74
2023/07/21 03:13:20;;;;;;;3.45;1.33;;;16.30;99.90;;;;;;5018927;28;20222;-76
2023/07/21 03:15:46;;;;;;;1.70;1.52;;;16.30;99.90;;;;;;5014558;28;20699;-75
2023/07/21 03:18:12;;;;;;;1.73;1.30;;;16.30;99.90;;;;;;5019073;28;20584;-76
2023/07/21 03:20:37;;;;;;;1.58;1.20;;;16.30;99.90;;;;;;5018737;28;20213;-76
2023/07/21 03:23:03;;;;;;;2.00;1.60;;;16.30;99.90;;;;;;5018701;28;20220;-76
2023/07/21 03:25:30;;;;;;;3.83;1.63;;;16.40;99.90;;;;;;5020920;28;20307;-75
2023/07/21 03:27:55;;;;;;;1.95;1.08;;;16.50;99.90;;;;;;5018340;28;20764;-76
2023/07/21 03:30:21;;;;;;;2.70;1.63;;;16.50;99.90;;;;;;5021861;28;20204;-74
2023/07/21 03:32:47;;;;;;;2.25;1.40;;;16.50;99.90;;;;;;5021249;28;20337;-75
2023/07/21 03:35:12;;;;;;;4.72;1.60;;;16.50;99.90;;;;;;5009569;28;20216;-75
2023/07/21 03:37:38;;;;;;;3.65;1.55;;;16.50;99.90;;;;;;5015019;28;20533;-74
2023/07/21 03:40:06;;;;;;;3.65;1.70;;;16.60;99.90;;;;;;5021395;28;20215;-74
2023/07/21 03:42:33;;;;;;;3.03;1.90;;;16.70;99.90;;;;;;5019140;28;20220;-75
2023/07/21 03:45:04;;;;;;;4.53;2.03;;;16.80;99.90;;;;;;5021496;28;20886;-75
2023/07/21 03:47:31;;;;;;;3.88;1.77;;;17.00;99.90;;;;;;5020629;28;20220;-71
2023/07/21 03:49:58;;;;;;;2.67;1.80;;;17.60;99.90;;;;;;5019847;28;20183;-74
2023/07/21 03:52:23;;;;;;;3.58;1.65;;;18.60;99.90;;;;;;5018626;28;20211;-74
2023/07/21 03:54:49;;;;;;;3.63;1.83;;;19.30;99.90;;;;;;5019043;28;20240;-75
2023/07/21 03:57:15;;;;;;;3.53;1.70;;;19.90;99.90;;;;;;5021921;28;20450;-75
2023/07/21 03:59:42;;;;;;;3.50;1.52;;;20.50;99.90;;;;;;5017510;28;20239;-75
2023/07/21 04:02:08;;;;;;;6.68;1.83;;;20.80;99.90;;;;;;5014348;28;20172;-74
2023/07/21 04:04:34;;;;;;;2.67;1.50;;;21.40;99.90;;;;;;5018146;28;20227;-76
2023/07/21 04:07:01;;;;;;;3.03;1.50;;;21.80;99.90;;;;;;5019288;28;20197;-73
2023/07/21 04:09:28;;;;;;;2.75;1.33;;;22.30;99.90;;;;;;5019564;28;20208;-74
2023/07/21 04:11:53;;;;;;;2.78;1.55;;;23.30;99.90;;;;;;5018408;28;20702;-74
2023/07/21 04:14:19;;;;;;;2.63;1.77;;;23.00;99.90;;;;;;5017888;28;20213;-75
2023/07/21 04:16:45;;;;;;;2.97;1.40;;;22.70;99.90;;;;;;5019862;28;20173;-75
2023/07/21 04:19:11;;;;;;;3.35;1.42;;;23.50;99.90;;;;;;5021511;28;20220;-72
2023/07/21 04:21:37;;;;;;;3.92;1.70;;;24.50;99.90;;;;;;5017988;28;20292;-75
2023/07/21 04:24:03;;;;;;;2.17;1.30;;;24.90;99.90;;;;;;5023168;28;20312;-75
2023/07/21 04:26:28;;;;;;;2.38;1.20;;;25.30;99.90;;;;;;5018883;28;20223;-76
2023/07/21 04:28:54;;;;;;;1.52;1.00;;;25.70;99.90;;;;;;5019036;28;20289;-74
2023/07/21 04:31:22;;;;;;;5.05;1.58;;;25.70;99.90;;;;;;5019658;28;20219;-72
2023/07/21 04:33:49;;;;;;;2.15;1.50;;;26.20;99.90;;;;;;5018505;28;20228;-73
2023/07/21 04:36:14;;;;;;;4.20;2.15;;;27.20;99.90;;;;;;5019545;28;20217;-73
2023/07/21 04:38:40;;;;;;;4.72;3.60;;;28.00;99.90;;;;;;5019606;28;20358;-76
2023/07/21 04:41:06;;;;;;;3.28;1.80;;;27.90;99.90;;;;;;5013925;28;20189;-76
2023/07/21 04:43:31;;;;;;;3.60;1.85;;;28.10;99.90;;;;;;5013936;28;20303;-77
2023/07/21 04:45:57;;;;;;;3.33;1.40;;;27.90;99.90;;;;;;5009195;28;20700;-77
2023/07/21 04:48:23;;;;;;;2.33;1.25;;;26.70;99.90;;;;;;5016168;28;20359;-77
2023/07/21 04:50:52;;;;;;;3.72;1.40;;;24.70;99.90;;;;;;5014387;28;20585;-76
2023/07/21 04:53:17;;;;;;;3.72;1.33;;;23.20;99.90;;;;;;5011365;28;20595;-76
2023/07/21 04:55:43;;;;;;;2.88;1.10;;;22.10;99.90;;;;;;5013373;28;20173;-77
2023/07/21 04:58:09;;;;;;;4.43;1.30;;;23.60;99.90;;;;;;5016977;28;20256;-76
2023/07/21 05:00:34;;;;;;;4.03;1.30;;;24.60;99.90;;;;;;5015806;28;20722;-76
2023/07/21 05:03:00;;;;;;;2.22;1.38;;;23.50;99.90;;;;;;5021495;28;20209;-77
2023/07/21 05:05:27;;;;;;;2.60;2.15;;;23.00;99.90;;;;;;5016451;28;20212;-77
2023/07/21 05:07:53;;;;;;;4.78;2.42;;;21.90;99.90;;;;;;5016589;28;20177;-74
2023/07/21 05:10:19;;;;;;;4.07;2.38;;;21.50;99.90;;;;;;5018745;28;20234;-75
2023/07/21 05:12:45;;;;;;;5.47;1.67;;;21.20;99.90;;;;;;5012414;28;20766;-76
2023/07/21 05:15:12;;;;;;;3.58;1.92;;;20.90;99.90;;;;;;5025277;28;20292;-75
2023/07/21 05:17:38;;;;;;;4.10;2.10;;;20.40;99.90;;;;;;5013119;28;20215;-73
2023/07/21 05:20:05;;;;;;;3.30;1.60;;;19.70;99.90;;;;;;5009299;28;20670;-75
2023/07/21 05:22:31;;;;;;;4.68;1.67;;;19.20;99.90;;;;;;5016223;28;20176;-75
2023/07/21 05:24:57;;;;;;;2.83;1.60;;;19.00;99.90;;;;;;5009088;28;20265;-75
2023/07/21 05:27:22;;;;;;;3.45;2.10;;;18.90;99.90;;;;;;5017756;28;20204;-75
2023/07/21 05:29:48;;;;;;;2.67;1.60;;;18.80;99.90;;;;;;5008153;28;20563;-75
2023/07/21 05:32:15;;;;;;;5.18;1.77;;;18.50;99.90;;;;;;5016991;28;20277;-74
2023/07/21 05:34:42;;;;;;;3.88;1.83;;;18.50;99.90;;;;;;5016126;28;20208;-74
2023/07/21 05:37:12;;;;;;;4.05;1.92;;;18.30;99.90;;;;;;5016306;28;20691;-74
2023/07/21 05:39:39;;;;;;;3.40;2.38;;;18.40;99.90;;;;;;5011915;28;20225;-75
2023/07/21 05:42:05;;;;;;;5.00;2.67;;;18.50;99.90;;;;;;5018133;28;20204;-75
2023/07/21 05:44:33;;;;;;;5.63;2.83;;;18.40;99.90;;;;;;5016861;28;20220;-76
2023/07/21 05:46:59;;;;;;;4.95;3.28;;;18.60;99.90;;;;;;5017850;28;20177;-74
2023/07/21 05:49:25;;;;;;;6.38;2.30;;;18.40;99.90;;;;;;5017279;28;20195;-75
2023/07/21 05:51:51;;;;;;;2.88;1.80;;;18.50;99.90;;;;;;5003739;28;20708;-72
2023/07/21 05:54:17;;;;;;;3.17;2.00;;;18.50;99.90;;;;;;5009276;28;20233;-72
2023/07/21 05:56:42;;;;;;;3.15;1.70;;;18.60;99.90;;;;;;5010374;28;20978;-73
2023/07/21 05:59:08;;;;;;;5.85;1.98;;;18.40;99.90;;;;;;5008516;28;20203;-74
2023/07/21 06:01:36;;;;;;;4.50;2.47;;;18.70;99.90;;;;;;5015129;28;20242;-75
2023/07/21 06:04:03;;;;;;;4.30;2.50;;;18.70;99.90;;;;;;5006605;28;20227;-73
2023/07/21 06:06:29;;;;;;;3.65;1.92;;;18.70;99.90;;;;;;5015634;28;20216;-76
2023/07/21 06:08:55;;;;;;;5.90;2.92;;;18.90;99.90;;;;;;5008707;28;20616;-74
2023/07/21 06:11:22;;;;;;;5.22;3.40;;;19.00;99.90;;;;;;5016721;28;20295;-75
2023/07/21 06:13:48;;;;;;;5.60;2.10;;;19.10;99.90;;;;;;5015782;28;20212;-74
2023/07/21 06:16:13;;;;;;;5.70;2.30;;;19.30;99.90;;;;;;5012487;28;20219;-75
2023/07/21 06:18:39;;;;;;;4.88;2.15;;;19.30;99.90;;;;;;5015449;28;20279;-76
2023/07/21 06:21:04;;;;;;;3.50;2.17;;;18.80;99.90;;;;;;5014446;28;20220;-75
2023/07/21 06:23:30;;;;;;;4.85;2.13;;;18.90;99.90;;;;;;5015209;28;20237;-76
2023/07/21 06:25:56;;;;;;;3.50;2.30;;;18.70;99.90;;;;;;5013848;28;20180;-75
2023/07/21 06:28:21;;;;;;;3.28;1.80;;;18.60;99.90;;;;;;5004370;28;20189;-74
2023/07/21 06:30:48;;;;;;;6.25;2.72;;;18.20;99.90;;;;;;5011387;28;20699;-73
2023/07/21 06:33:13;;;;;;;5.47;2.08;;;18.10;99.90;;;;;;5008819;28;20225;-75
2023/07/21 06:35:39;;;;;;;8.00;3.05;;;18.10;99.90;;;;;;5016840;28;20275;-80
2023/07/21 06:38:07;;;;;;;4.25;2.40;;;18.10;99.90;;;;;;5010684;28;20194;-75
2023/07/21 06:40:33;;;;;;;4.00;1.95;;;18.20;99.90;;;;;;5012966;28;20200;-75
2023/07/21 06:42:58;;;;;;;8.23;3.83;;;18.30;99.90;;;;;;5008392;28;20212;-75
2023/07/21 06:45:25;;;;;;;7.28;3.55;;;18.30;99.90;;;;;;5013382;28;20227;-75
2023/07/21 06:47:51;;;;;;;5.97;3.45;;;18.40;99.90;;;;;;5017152;28;20215;-76
2023/07/21 06:50:17;;;;;;;11.65;4.40;;;18.50;99.90;;;;;;5019729;28;20204;-73
2023/07/21 06:52:45;;;;;;;5.88;3.00;;;18.60;99.90;;;;;;5018446;28;20185;-76
2023/07/21 06:55:10;;;;;;;7.65;2.85;;;18.70;99.90;;;;;;5014213;28;20220;-79
2023/07/21 06:57:36;;;;;;;9.77;3.45;;;18.90;99.90;;;;;;5017458;28;20295;-74
2023/07/21 07:00:03;;;;;;;5.88;2.97;;;18.80;99.90;;;;;;5009621;28;20601;-75
2023/07/21 07:02:30;;;;;;;4.90;2.38;;;18.70;99.90;;;;;;5014783;28;20877;-75
2023/07/21 07:04:55;;;;;;;7.00;2.20;;;18.80;99.90;;;;;;5013081;28;20216;-75
2023/07/21 07:07:21;;;;;;;4.70;2.13;;;18.80;99.90;;;;;;5011432;28;20644;-74
2023/07/21 07:09:47;;;;;;;5.95;2.50;;;18.60;99.90;;;;;;5012819;28;20217;-74
2023/07/21 07:12:12;;;;;;;6.20;3.03;;;18.70;99.90;;;;;;5005763;28;20300;-75
2023/07/21 07:14:38;;;;;;;7.38;3.67;;;18.80;99.90;;;;;;5014826;28;20223;-75
2023/07/21 07:17:04;;;;;;;7.07;3.25;;;18.70;99.90;;;;;;5011134;28;20187;-75
2023/07/21 07:19:29;;;;;;;4.07;3.03;;;18.70;99.90;;;;;;5006085;28;20188;-76
2023/07/21 07:21:55;;;;;;;6.65;3.63;;;18.60;99.90;;;;;;5015895;28;20266;-73
2023/07/21 07:24:21;;;;;;;8.77;4.03;;;18.60;99.90;;;;;;5010867;28;20711;-75
2023/07/21 07:26:47;;;;;;;8.68;3.90;;;18.70;99.90;;;;;;5010769;28;20213;-76
2023/07/21 07:29:15;;;;;;;7.05;4.03;;;18.80;99.90;;;;;;5011660;28;20189;-75
2023/07/21 07:31:41;;;;;;;9.30;4.25;;;19.00;99.90;;;;;;5017892;28;20187;-75
2023/07/21 07:34:07;;;;;;;11.07;4.15;;;19.10;99.90;;;;;;5015169;28;20312;-75
2023/07/21 07:36:32;;;;;;;8.65;4.35;;;19.20;99.90;;;;;;5011657;28;20290;-75
2023/07/21 07:38:58;;;;;;;11.55;5.30;;;19.40;99.90;;;;;;5012993;28;20239;-76
2023/07/21 07:41:24;;;;;;;13.60;5.53;;;19.50;99.90;;;;;;5011029;28;20580;-75
2023/07/21 07:43:49;;;;;;;16.35;5.30;;;19.50;99.90;;;;;;5013322;28;20223;-73
2023/07/21 07:46:17;;;;;;;15.20;6.47;;;19.60;99.90;;;;;;5011554;28;20225;-76
2023/07/21 07:48:43;;;;;;;16.98;6.32;;;19.50;99.90;;;;;;5016152;28;20216;-73
2023/07/21 07:51:09;;;;;;;13.73;6.90;;;19.40;99.90;;;;;;5004725;28;20205;-75
2023/07/21 07:53:35;;;;;;;12.98;6.05;;;19.40;99.90;;;;;;5006188;28;20212;-75
2023/07/21 07:56:02;;;;;;;17.88;7.55;;;19.60;99.90;;;;;;5015574;28;20263;-75
2023/07/21 07:58:27;;;;;;;12.88;7.45;;;19.70;99.90;;;;;;5013980;28;20734;-77
2023/07/21 08:00:57;;;;;;;14.07;6.97;;;19.60;99.90;;;;;;5007205;28;20205;-75
2023/07/21 08:03:24;;;;;;;12.60;6.32;;;19.90;99.90;;;;;;5015534;28;20213;-74
2023/07/21 08:05:50;;;;;;;10.43;5.97;;;19.90;99.90;;;;;;5000945;28;20216;-76
2023/07/21 08:08:18;;;;;;;9.80;5.97;;;19.90;99.90;;;;;;5002153;28;20597;-75
2023/07/21 08:10:44;;;;;;;14.43;6.47;;;19.70;99.90;;;;;;5012975;28;20177;-73
2023/07/21 08:13:10;;;;;;;13.95;6.35;;;19.50;99.90;;;;;;4999378;28;20213;-77
2023/07/21 08:15:39;;;;;;;10.95;5.82;;;19.60;99.90;;;;;;5003255;28;20221;-74
2023/07/21 08:18:04;;;;;;;10.73;6.30;;;19.60;99.90;;;;;;5012438;28;20219;-75
2023/07/21 08:20:30;;;;;;;14.43;6.35;;;19.80;99.90;;;;;;5009985;28;20213;-74
2023/07/21 08:22:56;;;;;;;10.90;4.88;;;20.10;99.90;;;;;;5006124;28;20598;-74
2023/07/21 08:25:22;;;;;;;7.32;3.53;;;20.30;99.90;;;;;;5008940;28;20196;-76
2023/07/21 08:27:47;;;;;;;5.97;4.00;;;20.20;99.90;;;;;;5004763;28;20228;-76
2023/07/21 08:30:15;;;;;;;7.00;3.30;;;20.40;99.90;;;;;;5005358;28;20205;-75
2023/07/21 08:32:42;;;;;;;11.60;4.95;;;20.70;99.90;;;;;;5007829;28;20468;-73
2023/07/21 08:35:08;;;;;;;7.68;3.75;;;21.10;99.90;;;;;;5008196;28;20295;-75
2023/07/21 08:37:34;;;;;;;5.53;3.30;;;21.30;99.90;;;;;;5019676;28;20961;-72
2023/07/21 08:40:00;;;;;;;7.97;4.10;;;21.10;99.90;;;;;;5011000;28;20280;-74
2023/07/21 08:42:27;;;;;;;11.45;4.13;;;21.10;99.90;;;;;;5010461;28;20244;-73
2023/07/21 08:44:54;;;;;;;7.90;4.68;;;21.00;99.90;;;;;;5019416;28;20572;-73
2023/07/21 08:47:21;;;;;;;6.53;3.60;;;21.00;99.90;;;;;;5010994;28;20316;-74
2023/07/21 08:49:47;;;;;;;7.72;4.60;;;21.20;99.90;;;;;;5012708;28;20541;-75
2023/07/21 08:52:13;;;;;;;7.90;3.75;;;21.30;99.90;;;;;;5008494;28;20581;-75
2023/07/21 08:54:39;;;;;;;6.88;3.63;;;21.40;99.90;;;;;;5006094;28;20228;-74
2023/07/21 08:57:05;;;;;;;5.45;3.30;;;21.00;99.90;;;;;;5004238;28;20232;-75
2023/07/21 08:59:31;;;;;;;8.40;3.28;;;21.10;99.90;;;;;;5006978;28;20240;-75
2023/07/21 09:01:57;;;;;;;7.13;3.05;;;21.30;99.90;;;;;;5005556;28;20185;-72
2023/07/21 09:04:24;;;;;;;8.30;3.47;;;21.10;99.90;;;;;;5004089;28;20240;-74
2023/07/21 09:06:56;;;;;;;6.70;3.67;;;21.00;99.90;;;;;;5004014;28;20255;-74
2023/07/21 09:09:23;;;;;;;10.77;4.28;;;20.90;99.90;;;;;;5005450;28;20704;-74
2023/07/21 09:11:49;;;;;;;7.72;4.25;;;21.00;99.90;;;;;;5006769;28;20585;-74
2023/07/21 09:14:16;;;;;;;6.30;3.88;;;20.90;99.90;;;;;;5003851;28;20741;-74
2023/07/21 09:16:43;;;;;;;4.75;2.70;;;20.90;99.90;;;;;;5011686;28;20620;-73
2023/07/21 09:19:10;;;;;;;7.32;3.03;;;20.80;99.90;;;;;;5008332;28;20216;-74
2023/07/21 09:21:36;;;;;;;7.65;3.28;;;20.80;99.90;;;;;;5005985;28;20208;-73
2023/07/21 09:24:06;;;;;;;7.30;3.13;;;20.80;99.90;;;;;;5005182;28;20588;-73
2023/07/21 09:26:32;;;;;;;4.50;2.63;;;20.90;99.90;;;;;;5006036;28;20246;-72
2023/07/21 09:28:58;;;;;;;3.55;1.92;;;20.80;99.90;;;;;;5006040;28;20223;-76
2023/07/21 09:31:32;;;;;;;4.88;2.55;;;20.70;99.90;;;;;;5008197;28;20187;-73
2023/07/21 09:34:09;;;;;;;3.88;2.25;;;20.70;99.90;;;;;;5014278;28;20217;-71
2023/07/21 09:36:35;;;;;;;4.53;2.33;;;20.90;99.90;;;;;;5007643;28;20220;-72
2023/07/21 09:39:04;;;;;;;4.93;2.00;;;21.00;99.90;;;;;;5008052;28;20205;-73
2023/07/21 09:41:33;;;;;;;4.05;2.42;;;21.20;99.90;;;;;;5005182;28;20223;-73
2023/07/21 09:43:59;;;;;;;6.63;2.40;;;21.30;99.90;;;;;;5006119;28;20726;-75
2023/07/21 09:46:28;;;;;;;3.10;2.08;;;21.30;99.90;;;;;;5003969;28;20192;-75
2023/07/21 09:48:53;;;;;;;3.92;2.17;;;21.30;99.90;;;;;;5009448;28;20295;-73
2023/07/21 09:51:20;;;;;;;5.43;2.60;;;21.40;99.90;;;;;;5003001;28;20297;-74
2023/07/21 09:53:49;;;;;;;4.18;2.67;;;21.40;99.90;;;;;;5003717;28;20463;-72
2023/07/21 09:56:17;;;;;;;7.53;2.53;;;21.30;99.90;;;;;;5005892;28;20273;-75
2023/07/21 09:58:51;;;;;;;6.97;2.92;;;21.50;99.90;;;;;;5009428;28;20180;-73
2023/07/21 10:01:18;;;;;;;6.10;3.10;;;21.50;99.90;;;;;;5007576;28;20680;-73
2023/07/21 10:03:44;;;;;;;4.70;2.70;;;21.40;99.90;;;;;;5008065;28;20221;-73
2023/07/21 10:06:11;;;;;;;4.25;2.65;;;21.60;99.90;;;;;;5005508;28;20224;-71
2023/07/21 10:08:38;;;;;;;5.85;3.10;;;21.80;99.90;;;;;;5005460;28;20209;-72
2023/07/21 10:11:07;;;;;;;4.85;3.00;;;22.00;99.90;;;;;;5009767;28;20268;-73
2023/07/21 10:13:39;;;;;;;7.78;3.17;;;22.30;99.90;;;;;;5005732;28;20555;-73
2023/07/21 10:16:11;;;;;;;5.63;3.00;;;22.50;99.90;;;;;;5006587;28;20212;-73
2023/07/21 10:19:00;;;;;;;5.13;2.65;;;22.40;99.90;;;;;;5007377;28;20728;-73
2023/07/21 10:21:31;;;;;;;5.05;2.60;;;22.60;99.90;;;;;;5008609;28;20223;-72
2023/07/21 10:24:00;;;;;;;4.80;2.88;;;22.80;99.90;;;;;;5005709;28;20225;-71
2023/07/21 10:26:25;;;;;;;4.65;2.70;;;23.00;99.90;;;;;;5003740;28;20305;-72
2023/07/21 10:28:53;;;;;;;6.25;3.13;;;22.60;99.90;;;;;;5013845;28;20263;-73
2023/07/21 10:34:03;;;;;;;5.00;2.42;;;22.60;99.90;;;;;;5013878;28;20213;-72
2023/07/21 10:36:52;;;;;;;4.32;3.00;;;22.90;99.90;;;;;;5010937;28;20761;-74
2023/07/21 10:39:26;;;;;;;5.80;2.60;;;22.20;99.90;;;;;;5008437;28;20268;-72
2023/07/21 10:41:58;;;;;;;5.18;2.65;;;21.70;99.90;;;;;;5013844;28;20236;-73
2023/07/21 10:44:30;;;;;;;4.15;2.33;;;21.80;99.90;;;;;;5006184;28;20253;-76
2023/07/21 10:46:56;;;;;;;4.10;1.80;;;22.00;99.90;;;;;;5006409;28;20187;-75
2023/07/21 10:49:22;;;;;;;2.72;2.40;;;21.60;99.90;;;;;;5009653;28;20181;-76
2023/07/21 10:51:49;;;;;;;3.95;2.13;;;21.60;99.90;;;;;;5007330;28;20232;-76
2023/07/21 10:54:16;;;;;;;4.57;2.28;;;21.50;99.90;;;;;;5005464;28;20217;-75
2023/07/21 10:56:43;;;;;;;2.30;1.77;;;21.30;99.90;;;;;;5014812;28;20267;-75
2023/07/21 10:59:13;;;;;;;2.58;1.95;;;21.70;99.90;;;;;;5011781;28;20250;-76
2023/07/21 11:01:41;;;;;;;4.35;2.40;;;21.60;99.90;;;;;;5009377;28;20181;-76
2023/07/21 11:04:08;;;;;;;3.63;2.00;;;21.60;99.90;;;;;;5008273;28;20245;-75
2023/07/21 11:06:39;;;;;;;3.50;2.10;;;21.20;99.90;;;;;;5004751;28;20208;-75
2023/07/21 11:09:05;;;;;;;7.43;2.60;;;21.10;99.90;;;;;;5006701;28;20205;-75
2023/07/21 11:11:30;;;;;;;3.97;1.83;;;21.30;99.90;;;;;;5007621;28;20347;-75
2023/07/21 11:13:56;;;;;;;4.45;1.95;;;21.10;99.90;;;;;;5010431;28;20773;-75
2023/07/21 11:16:21;;;;;;;6.15;4.13;;;21.30;99.90;;;;;;5014717;28;20188;-76
2023/07/21 11:18:47;;;;;;;6.63;4.53;;;21.00;99.90;;;;;;5014816;28;20221;-75
2023/07/21 11:21:12;;;;;;;5.10;3.78;;;21.30;99.90;;;;;;5010747;28;20303;-77
2023/07/21 11:23:38;;;;;;;6.05;3.70;;;21.40;99.90;;;;;;5012102;28;20218;-74
2023/07/21 11:26:06;;;;;;;2.20;1.67;;;21.40;99.90;;;;;;5013585;28;20203;-75
2023/07/21 11:28:33;;;;;;;3.75;2.25;;;21.30;99.90;;;;;;5024691;28;20196;-74
2023/07/21 11:31:02;;;;;;;9.25;6.95;;;21.40;99.90;;;;;;5011493;28;20297;-75
2023/07/21 11:33:43;;;;;;;4.32;3.03;;;21.40;99.90;;;;;;5018461;28;20209;-75
2023/07/21 11:36:24;;;;;;;3.13;1.75;;;21.40;99.90;;;;;;5006922;28;20212;-77
2023/07/21 11:39:09;;;;;;;3.22;1.58;;;21.30;99.90;;;;;;5017710;28;20203;-75
2023/07/21 11:41:43;;;;;;;3.38;2.15;;;21.10;99.90;;;;;;5031182;28;20220;-76
2023/07/21 11:44:25;;;;;;;2.72;1.80;;;21.00;99.90;;;;;;5018420;28;20654;-72
2023/07/21 11:47:10;;;;;;;3.30;1.90;;;21.10;99.90;;;;;;5020322;28;20180;-74
2023/07/21 11:49:45;;;;;;;2.88;2.50;;;20.90;99.90;;;;;;5020265;28;20893;-75
2023/07/21 11:52:24;;;;;;;3.70;1.75;;;20.80;99.90;;;;;;5019782;28;20210;-76
2023/07/21 11:54:50;;;;;;;5.65;3.20;;;20.80;99.90;;;;;;5018251;28;20263;-76
2023/07/21 11:57:17;;;;;;;4.78;2.00;;;20.90;99.90;;;;;;5021557;28;20299;-75
2023/07/21 11:59:42;;;;;;;4.45;1.80;;;20.90;99.90;;;;;;5017544;28;20212;-76
2023/07/21 12:02:08;;;;;;;6.72;2.53;;;20.80;99.90;;;;;;5011242;28;20174;-77
2023/07/21 12:04:35;;;;;;;3.03;1.65;;;20.70;99.90;;;;;;5011471;28;20580;-76
2023/07/21 12:07:01;;;;;;;2.50;1.85;;;20.70;99.90;;;;;;5019404;28;20209;-76
2023/07/21 12:09:28;;;;;;;3.50;1.77;;;20.70;99.90;;;;;;5012123;28;20209;-75
2023/07/21 12:11:55;;;;;;;6.82;2.20;;;20.50;99.90;;;;;;5015736;28;20229;-75
2023/07/21 12:14:23;;;;;;;5.43;1.65;;;20.60;99.90;;;;;;5016017;28;20338;-78
2023/07/21 12:16:49;;;;;;;6.95;2.15;;;20.70;99.90;;;;;;5020436;28;20264;-80
2023/07/21 12:19:15;;;;;;;7.40;2.20;;;20.90;99.90;;;;;;5017319;28;20766;-80
2023/07/21 12:21:41;;;;;;;3.55;1.95;;;21.10;99.90;;;;;;5020230;28;20232;-79
2023/07/21 12:24:06;;;;;;;5.57;2.33;;;21.10;99.90;;;;;;5019567;28;20223;-78
2023/07/21 12:26:32;;;;;;;8.45;2.85;;;21.40;99.90;;;;;;5019645;28;20236;-76
2023/07/21 12:28:58;;;;;;;4.82;2.10;;;21.70;99.90;;;;;;5020804;28;20184;-78
2023/07/21 12:31:25;;;;;;;5.13;1.88;;;21.80;99.90;;;;;;5012830;28;20204;-78
2023/07/21 12:33:51;;;;;;;3.05;1.58;;;21.90;99.90;;;;;;5008553;28;20205;-73
2023/07/21 12:36:18;;;;;;;4.55;2.30;;;21.80;99.90;;;;;;5013838;28;20216;-74
2023/07/21 12:38:45;;;;;;;4.25;1.63;;;21.90;99.90;;;;;;5008574;28;20255;-76
2023/07/21 12:41:11;;;;;;;2.65;1.83;;;21.90;99.90;;;;;;5013797;28;20680;-75
2023/07/21 12:43:36;;;;;;;3.10;2.28;;;21.70;99.90;;;;;;5010318;28;20212;-80
2023/07/21 12:46:03;;;;;;;3.17;2.03;;;21.50;99.90;;;;;;5016930;28;20307;-77
2023/07/21 12:48:30;;;;;;;2.85;1.60;;;21.40;99.90;;;;;;5021763;28;20247;-78